sensor_id;sensor_type;location;lat;lon;timestamp;temperature;humidity
69324;DHT22;56470;47.350;8.718;2022-08-11T00:02:31;19.50;53.99
69324;DHT22;56470;47.350;8.718;2022-08-11T00:05:08;19.57;53.82
69324;DHT22;56470;47.350;8.718;2022-08-11T00:07:53;19.51;53.80
69324;DHT22;56470;47.350;8.718;2022-08-11T00:10:24;19.63;53.54
69324;DHT22;56470;47.350;8.718;2022-08-11T00:13:02;19.70;53.40
69324;DHT22;56470;47.350;8.718;2022-08-11T00:15:41;19.63;53.34
69324;DHT22;56470;47.350;8.718;2022-08-11T00:18:08;19.66;53.41
69324;DHT22;56470;47.350;8.718;2022-08-11T00:20:40;19.64;53.55
69324;DHT22;56470;47.350;8.718;2022-08-11T00:23:08;19.61;53.79
69324;DHT22;56470;47.350;8.718;2022-08-11T00:25:38;19.57;54.40
69324;DHT22;56470;47.350;8.718;2022-08-11T00:28:04;19.63;54.42
69324;DHT22;56470;47.350;8.718;2022-08-11T00:30:38;19.68;54.32
69324;DHT22;56470;47.350;8.718;2022-08-11T00:33:04;19.75;53.69
69324;DHT22;56470;47.350;8.718;2022-08-11T00:35:31;19.68;53.90
69324;DHT22;56470;47.350;8.718;2022-08-11T00:37:58;19.71;53.86
69324;DHT22;56470;47.350;8.718;2022-08-11T00:40:32;19.67;53.88
69324;DHT22;56470;47.350;8.718;2022-08-11T00:43:23;19.51;54.46
69324;DHT22;56470;47.350;8.718;2022-08-11T01:00:25;19.31;55.28
69324;DHT22;56470;47.350;8.718;2022-08-11T01:11:52;18.81;56.80
69324;DHT22;56470;47.350;8.718;2022-08-11T01:38:41;18.99;56.55
69324;DHT22;56470;47.350;8.718;2022-08-11T01:50:20;18.54;60.13
69324;DHT22;56470;47.350;8.718;2022-08-11T01:55:36;18.21;62.22
69324;DHT22;56470;47.350;8.718;2022-08-11T01:58:25;18.25;61.66
69324;DHT22;56470;47.350;8.718;2022-08-11T02:01:01;18.28;60.99
69324;DHT22;56470;47.350;8.718;2022-08-11T02:03:42;18.33;59.66
69324;DHT22;56470;47.350;8.718;2022-08-11T02:12:09;18.32;58.97
69324;DHT22;56470;47.350;8.718;2022-08-11T02:15:14;18.19;58.97
69324;DHT22;56470;47.350;8.718;2022-08-11T02:18:07;18.08;58.78
69324;DHT22;56470;47.350;8.718;2022-08-11T02:20:42;17.96;59.21
69324;DHT22;56470;47.350;8.718;2022-08-11T02:23:38;17.94;60.32
69324;DHT22;56470;47.350;8.718;2022-08-11T02:26:09;17.92;62.88
69324;DHT22;56470;47.350;8.718;2022-08-11T02:28:59;17.95;63.16
69324;DHT22;56470;47.350;8.718;2022-08-11T02:34:29;17.70;64.32
69324;DHT22;56470;47.350;8.718;2022-08-11T02:39:28;17.30;66.27
69324;DHT22;56470;47.350;8.718;2022-08-11T02:42:37;17.11;66.87
69324;DHT22;56470;47.350;8.718;2022-08-11T02:47:53;17.04;67.28
69324;DHT22;56470;47.350;8.718;2022-08-11T02:50:51;17.01;67.40
69324;DHT22;56470;47.350;8.718;2022-08-11T02:53:37;16.95;67.60
69324;DHT22;56470;47.350;8.718;2022-08-11T02:56:39;17.01;67.07
69324;DHT22;56470;47.350;8.718;2022-08-11T03:02:28;16.94;67.72
69324;DHT22;56470;47.350;8.718;2022-08-11T03:10:24;16.78;68.73
69324;DHT22;56470;47.350;8.718;2022-08-11T03:13:09;16.63;69.21
69324;DHT22;56470;47.350;8.718;2022-08-11T03:24:51;16.26;71.31
69324;DHT22;56470;47.350;8.718;2022-08-11T03:27:40;16.23;71.58
69324;DHT22;56470;47.350;8.718;2022-08-11T03:30:19;16.16;71.85
69324;DHT22;56470;47.350;8.718;2022-08-11T03:36:16;16.10;71.29
69324;DHT22;56470;47.350;8.718;2022-08-11T03:41:28;16.08;71.78
69324;DHT22;56470;47.350;8.718;2022-08-11T03:44:33;16.04;72.41
69324;DHT22;56470;47.350;8.718;2022-08-11T03:52:50;16.27;71.20
69324;DHT22;56470;47.350;8.718;2022-08-11T03:55:29;16.40;71.13
69324;DHT22;56470;47.350;8.718;2022-08-11T04:01:09;16.15;71.70
69324;DHT22;56470;47.350;8.718;2022-08-11T04:10:10;16.23;71.64
69324;DHT22;56470;47.350;8.718;2022-08-11T04:13:12;16.27;71.83
69324;DHT22;56470;47.350;8.718;2022-08-11T04:21:49;16.06;72.84
69324;DHT22;56470;47.350;8.718;2022-08-11T04:30:00;16.19;72.36
69324;DHT22;56470;47.350;8.718;2022-08-11T04:53:37;16.72;69.50
69324;DHT22;56470;47.350;8.718;2022-08-11T04:56:27;16.95;66.51
69324;DHT22;56470;47.350;8.718;2022-08-11T05:05:22;18.12;61.97
69324;DHT22;56470;47.350;8.718;2022-08-11T05:13:32;18.68;60.33
69324;DHT22;56470;47.350;8.718;2022-08-11T05:16:28;19.13;59.21
69324;DHT22;56470;47.350;8.718;2022-08-11T05:19:20;19.95;56.53
69324;DHT22;56470;47.350;8.718;2022-08-11T05:22:09;20.04;56.06
69324;DHT22;56470;47.350;8.718;2022-08-11T05:25:19;20.11;56.14
69324;DHT22;56470;47.350;8.718;2022-08-11T05:28:12;20.25;55.41
69324;DHT22;56470;47.350;8.718;2022-08-11T05:31:02;20.68;53.83
69324;DHT22;56470;47.350;8.718;2022-08-11T05:36:40;21.23;52.98
69324;DHT22;56470;47.350;8.718;2022-08-11T05:39:15;21.06;53.60
69324;DHT22;56470;47.350;8.718;2022-08-11T05:42:01;21.05;53.27
69324;DHT22;56470;47.350;8.718;2022-08-11T05:44:47;21.50;51.82
69324;DHT22;56470;47.350;8.718;2022-08-11T05:47:33;21.75;50.45
69324;DHT22;56470;47.350;8.718;2022-08-11T05:50:21;21.70;50.14
69324;DHT22;56470;47.350;8.718;2022-08-11T05:53:09;21.84;50.53
69324;DHT22;56470;47.350;8.718;2022-08-11T05:55:53;22.22;49.83
69324;DHT22;56470;47.350;8.718;2022-08-11T05:58:39;22.53;48.84
69324;DHT22;56470;47.350;8.718;2022-08-11T06:01:07;22.68;48.21
69324;DHT22;56470;47.350;8.718;2022-08-11T06:03:33;22.99;47.07
69324;DHT22;56470;47.350;8.718;2022-08-11T06:06:24;23.01;47.38
69324;DHT22;56470;47.350;8.718;2022-08-11T06:08:54;23.70;45.43
69324;DHT22;56470;47.350;8.718;2022-08-11T06:11:20;23.81;45.47
69324;DHT22;56470;47.350;8.718;2022-08-11T06:13:46;23.75;45.83
69324;DHT22;56470;47.350;8.718;2022-08-11T06:16:13;23.50;45.95
69324;DHT22;56470;47.350;8.718;2022-08-11T06:18:45;23.61;45.98
69324;DHT22;56470;47.350;8.718;2022-08-11T06:21:10;24.05;45.12
69324;DHT22;56470;47.350;8.718;2022-08-11T06:23:37;24.37;44.80
69324;DHT22;56470;47.350;8.718;2022-08-11T06:26:08;24.04;45.48
69324;DHT22;56470;47.350;8.718;2022-08-11T06:28:36;24.82;43.64
69324;DHT22;56470;47.350;8.718;2022-08-11T06:31:13;24.56;44.23
69324;DHT22;56470;47.350;8.718;2022-08-11T06:34:05;24.88;43.69
69324;DHT22;56470;47.350;8.718;2022-08-11T06:36:43;24.60;43.97
69324;DHT22;56470;47.350;8.718;2022-08-11T06:39:28;24.84;43.38
69324;DHT22;56470;47.350;8.718;2022-08-11T06:42:09;25.50;42.08
69324;DHT22;56470;47.350;8.718;2022-08-11T06:47:52;25.46;42.12
69324;DHT22;56470;47.350;8.718;2022-08-11T06:50:19;26.02;41.35
69324;DHT22;56470;47.350;8.718;2022-08-11T06:53:07;26.29;40.32
69324;DHT22;56470;47.350;8.718;2022-08-11T06:55:35;26.39;40.04
69324;DHT22;56470;47.350;8.718;2022-08-11T06:58:25;26.11;41.03
69324;DHT22;56470;47.350;8.718;2022-08-11T07:01:12;26.80;39.70
69324;DHT22;56470;47.350;8.718;2022-08-11T07:03:44;26.86;39.57
69324;DHT22;56470;47.350;8.718;2022-08-11T07:09:24;26.77;39.66
69324;DHT22;56470;47.350;8.718;2022-08-11T07:12:23;27.04;39.17
69324;DHT22;56470;47.350;8.718;2022-08-11T07:15:12;27.02;39.06
69324;DHT22;56470;47.350;8.718;2022-08-11T07:17:58;28.32;37.06
69324;DHT22;56470;47.350;8.718;2022-08-11T07:20:44;28.50;36.76
69324;DHT22;56470;47.350;8.718;2022-08-11T07:23:30;28.43;37.00
69324;DHT22;56470;47.350;8.718;2022-08-11T07:26:17;27.81;37.53
69324;DHT22;56470;47.350;8.718;2022-08-11T07:29:03;28.15;37.45
69324;DHT22;56470;47.350;8.718;2022-08-11T07:31:31;28.15;37.73
69324;DHT22;56470;47.350;8.718;2022-08-11T07:34:11;28.08;38.01
69324;DHT22;56470;47.350;8.718;2022-08-11T07:36:41;28.02;37.70
69324;DHT22;56470;47.350;8.718;2022-08-11T07:39:14;27.85;38.32
69324;DHT22;56470;47.350;8.718;2022-08-11T07:41:41;28.95;36.30
69324;DHT22;56470;47.350;8.718;2022-08-11T07:44:07;28.86;36.34
69324;DHT22;56470;47.350;8.718;2022-08-11T07:46:41;29.14;36.07
69324;DHT22;56470;47.350;8.718;2022-08-11T07:49:26;29.97;34.52
69324;DHT22;56470;47.350;8.718;2022-08-11T07:52:11;29.60;34.62
69324;DHT22;56470;47.350;8.718;2022-08-11T07:54:57;29.42;35.19
69324;DHT22;56470;47.350;8.718;2022-08-11T07:57:24;29.57;35.01
69324;DHT22;56470;47.350;8.718;2022-08-11T08:00:09;29.26;35.04
69324;DHT22;56470;47.350;8.718;2022-08-11T08:02:53;30.25;34.04
69324;DHT22;56470;47.350;8.718;2022-08-11T08:05:38;30.35;33.92
69324;DHT22;56470;47.350;8.718;2022-08-11T08:08:22;30.28;33.83
69324;DHT22;56470;47.350;8.718;2022-08-11T08:11:07;30.86;33.02
69324;DHT22;56470;47.350;8.718;2022-08-11T08:13:52;30.57;33.67
69324;DHT22;56470;47.350;8.718;2022-08-11T08:16:36;30.25;34.20
69324;DHT22;56470;47.350;8.718;2022-08-11T08:19:21;29.78;34.66
69324;DHT22;56470;47.350;8.718;2022-08-11T08:21:47;30.00;34.43
69324;DHT22;56470;47.350;8.718;2022-08-11T08:24:13;29.88;34.48
69324;DHT22;56470;47.350;8.718;2022-08-11T08:26:41;29.97;34.70
69324;DHT22;56470;47.350;8.718;2022-08-11T08:29:23;29.39;35.61
69324;DHT22;56470;47.350;8.718;2022-08-11T08:32:07;30.05;34.34
69324;DHT22;56470;47.350;8.718;2022-08-11T08:34:36;30.49;33.89
69324;DHT22;56470;47.350;8.718;2022-08-11T08:37:03;31.02;33.20
69324;DHT22;56470;47.350;8.718;2022-08-11T08:39:30;30.67;33.88
69324;DHT22;56470;47.350;8.718;2022-08-11T08:41:58;30.29;33.94
69324;DHT22;56470;47.350;8.718;2022-08-11T08:44:24;31.10;33.06
69324;DHT22;56470;47.350;8.718;2022-08-11T08:46:54;31.45;32.53
69324;DHT22;56470;47.350;8.718;2022-08-11T08:49:36;30.67;33.51
69324;DHT22;56470;47.350;8.718;2022-08-11T08:52:04;30.49;34.00
69324;DHT22;56470;47.350;8.718;2022-08-11T08:54:38;30.11;34.84
69324;DHT22;56470;47.350;8.718;2022-08-11T08:57:06;30.05;35.12
69324;DHT22;56470;47.350;8.718;2022-08-11T08:59:37;31.10;33.34
69324;DHT22;56470;47.350;8.718;2022-08-11T09:02:04;31.42;32.92
69324;DHT22;56470;47.350;8.718;2022-08-11T09:04:31;30.71;34.00
69324;DHT22;56470;47.350;8.718;2022-08-11T09:07:08;30.08;35.15
69324;DHT22;56470;47.350;8.718;2022-08-11T09:09:37;30.32;35.08
69324;DHT22;56470;47.350;8.718;2022-08-11T09:12:02;30.56;34.46
69324;DHT22;56470;47.350;8.718;2022-08-11T09:14:35;30.28;35.06
69324;DHT22;56470;47.350;8.718;2022-08-11T09:17:20;30.81;34.13
69324;DHT22;56470;47.350;8.718;2022-08-11T09:19:48;31.26;33.33
69324;DHT22;56470;47.350;8.718;2022-08-11T09:22:28;30.87;33.65
69324;DHT22;56470;47.350;8.718;2022-08-11T09:25:14;30.40;35.04
69324;DHT22;56470;47.350;8.718;2022-08-11T09:27:59;30.70;34.12
69324;DHT22;56470;47.350;8.718;2022-08-11T09:30:26;31.11;33.65
69324;DHT22;56470;47.350;8.718;2022-08-11T09:32:58;30.98;33.75
69324;DHT22;56470;47.350;8.718;2022-08-11T09:35:29;31.22;33.40
69324;DHT22;56470;47.350;8.718;2022-08-11T09:37:56;30.66;34.29
69324;DHT22;56470;47.350;8.718;2022-08-11T09:40:43;31.32;33.72
69324;DHT22;56470;47.350;8.718;2022-08-11T09:43:09;31.65;33.29
69324;DHT22;56470;47.350;8.718;2022-08-11T09:46:08;31.22;33.70
69324;DHT22;56470;47.350;8.718;2022-08-11T09:48:45;31.45;33.29
69324;DHT22;56470;47.350;8.718;2022-08-11T09:51:12;31.04;34.64
69324;DHT22;56470;47.350;8.718;2022-08-11T09:53:40;31.78;33.11
69324;DHT22;56470;47.350;8.718;2022-08-11T09:56:10;31.36;33.81
69324;DHT22;56470;47.350;8.718;2022-08-11T09:58:54;30.61;35.02
69324;DHT22;56470;47.350;8.718;2022-08-11T10:01:22;30.74;34.84
69324;DHT22;56470;47.350;8.718;2022-08-11T10:04:07;30.71;35.16
69324;DHT22;56470;47.350;8.718;2022-08-11T10:06:36;31.66;33.39
69324;DHT22;56470;47.350;8.718;2022-08-11T10:09:23;31.74;33.41
69324;DHT22;56470;47.350;8.718;2022-08-11T10:11:52;31.95;32.89
69324;DHT22;56470;47.350;8.718;2022-08-11T10:14:18;32.04;32.60
69324;DHT22;56470;47.350;8.718;2022-08-11T10:17:05;33.04;31.22
69324;DHT22;56470;47.350;8.718;2022-08-11T10:19:33;33.24;30.76
69324;DHT22;56470;47.350;8.718;2022-08-11T10:22:00;32.22;32.37
69324;DHT22;56470;47.350;8.718;2022-08-11T10:24:45;32.36;32.18
69324;DHT22;56470;47.350;8.718;2022-08-11T10:27:29;31.69;33.44
69324;DHT22;56470;47.350;8.718;2022-08-11T10:29:56;31.08;34.29
69324;DHT22;56470;47.350;8.718;2022-08-11T10:32:40;30.63;35.01
69324;DHT22;56470;47.350;8.718;2022-08-11T10:35:26;30.76;34.90
69324;DHT22;56470;47.350;8.718;2022-08-11T10:37:52;30.88;34.89
69324;DHT22;56470;47.350;8.718;2022-08-11T10:40:20;30.77;35.82
69324;DHT22;56470;47.350;8.718;2022-08-11T10:42:49;31.31;34.81
69324;DHT22;56470;47.350;8.718;2022-08-11T10:45:31;31.74;33.93
69324;DHT22;56470;47.350;8.718;2022-08-11T10:48:16;32.25;32.66
69324;DHT22;56470;47.350;8.718;2022-08-11T10:50:46;31.91;33.36
69324;DHT22;56470;47.350;8.718;2022-08-11T10:53:30;31.77;33.77
69324;DHT22;56470;47.350;8.718;2022-08-11T10:56:16;30.74;35.76
69324;DHT22;56470;47.350;8.718;2022-08-11T10:59:01;30.59;36.18
69324;DHT22;56470;47.350;8.718;2022-08-11T11:01:33;30.71;35.57
69324;DHT22;56470;47.350;8.718;2022-08-11T11:04:04;31.77;33.95
69324;DHT22;56470;47.350;8.718;2022-08-11T11:09:19;31.53;34.02
69324;DHT22;56470;47.350;8.718;2022-08-11T11:11:56;31.85;33.28
69324;DHT22;56470;47.350;8.718;2022-08-11T11:14:42;30.84;34.95
69324;DHT22;56470;47.350;8.718;2022-08-11T11:17:42;30.73;35.46
69324;DHT22;56470;47.350;8.718;2022-08-11T11:20:34;31.26;34.24
69324;DHT22;56470;47.350;8.718;2022-08-11T11:23:03;30.42;35.80
69324;DHT22;56470;47.350;8.718;2022-08-11T11:32:19;31.16;34.82
69324;DHT22;56470;47.350;8.718;2022-08-11T11:35:03;31.31;34.41
69324;DHT22;56470;47.350;8.718;2022-08-11T11:37:33;31.18;34.62
69324;DHT22;56470;47.350;8.718;2022-08-11T11:40:00;30.86;35.11
69324;DHT22;56470;47.350;8.718;2022-08-11T11:42:27;31.40;34.56
69324;DHT22;56470;47.350;8.718;2022-08-11T11:44:54;31.19;34.67
69324;DHT22;56470;47.350;8.718;2022-08-11T11:47:21;31.47;34.45
69324;DHT22;56470;47.350;8.718;2022-08-11T11:49:48;31.56;34.14
69324;DHT22;56470;47.350;8.718;2022-08-11T11:52:15;31.15;34.79
69324;DHT22;56470;47.350;8.718;2022-08-11T11:54:44;31.22;34.68
69324;DHT22;56470;47.350;8.718;2022-08-11T11:57:13;31.26;34.32
69324;DHT22;56470;47.350;8.718;2022-08-11T11:59:57;31.39;34.30
69324;DHT22;56470;47.350;8.718;2022-08-11T12:02:42;31.43;34.33
69324;DHT22;56470;47.350;8.718;2022-08-11T12:05:09;31.18;34.67
69324;DHT22;56470;47.350;8.718;2022-08-11T12:07:36;30.81;34.69
69324;DHT22;56470;47.350;8.718;2022-08-11T12:10:21;30.63;35.11
69324;DHT22;56470;47.350;8.718;2022-08-11T12:12:47;29.60;36.91
69324;DHT22;56470;47.350;8.718;2022-08-11T12:15:32;30.04;36.24
69324;DHT22;56470;47.350;8.718;2022-08-11T12:17:59;29.67;36.81
69324;DHT22;56470;47.350;8.718;2022-08-11T12:20:26;29.70;36.47
69324;DHT22;56470;47.350;8.718;2022-08-11T12:22:52;29.74;36.48
69324;DHT22;56470;47.350;8.718;2022-08-11T12:25:37;29.77;36.35
69324;DHT22;56470;47.350;8.718;2022-08-11T12:28:21;29.45;36.70
69324;DHT22;56470;47.350;8.718;2022-08-11T12:30:48;29.25;37.26
69324;DHT22;56470;47.350;8.718;2022-08-11T12:33:15;29.25;37.08
69324;DHT22;56470;47.350;8.718;2022-08-11T12:35:41;28.91;37.66
69324;DHT22;56470;47.350;8.718;2022-08-11T12:38:08;28.36;38.49
69324;DHT22;56470;47.350;8.718;2022-08-11T12:40:34;28.46;38.14
69324;DHT22;56470;47.350;8.718;2022-08-11T12:43:21;28.68;37.73
69324;DHT22;56470;47.350;8.718;2022-08-11T12:46:15;28.25;38.73
69324;DHT22;56470;47.350;8.718;2022-08-11T12:48:44;28.56;37.82
69324;DHT22;56470;47.350;8.718;2022-08-11T12:51:32;28.39;37.98
69324;DHT22;56470;47.350;8.718;2022-08-11T12:54:41;28.32;37.96
69324;DHT22;56470;47.350;8.718;2022-08-11T12:57:14;28.25;37.80
69324;DHT22;56470;47.350;8.718;2022-08-11T13:00:03;28.28;38.05
69324;DHT22;56470;47.350;8.718;2022-08-11T13:02:48;28.33;38.34
69324;DHT22;56470;47.350;8.718;2022-08-11T13:05:32;28.16;38.83
69324;DHT22;56470;47.350;8.718;2022-08-11T13:08:00;27.97;38.89
69324;DHT22;56470;47.350;8.718;2022-08-11T13:10:27;27.81;39.09
69324;DHT22;56470;47.350;8.718;2022-08-11T13:13:12;27.71;39.22
69324;DHT22;56470;47.350;8.718;2022-08-11T13:15:38;27.47;39.39
69324;DHT22;56470;47.350;8.718;2022-08-11T13:18:04;27.47;39.45
69324;DHT22;56470;47.350;8.718;2022-08-11T13:20:34;27.56;39.02
69324;DHT22;56470;47.350;8.718;2022-08-11T13:23:00;27.66;38.97
69324;DHT22;56470;47.350;8.718;2022-08-11T13:25:27;27.77;38.91
69324;DHT22;56470;47.350;8.718;2022-08-11T13:27:56;27.85;38.57
69324;DHT22;56470;47.350;8.718;2022-08-11T13:30:24;27.98;38.43
69324;DHT22;56470;47.350;8.718;2022-08-11T13:33:10;27.93;37.93
69324;DHT22;56470;47.350;8.718;2022-08-11T13:35:36;27.93;37.99
69324;DHT22;56470;47.350;8.718;2022-08-11T13:38:03;27.95;37.78
69324;DHT22;56470;47.350;8.718;2022-08-11T13:40:31;28.01;37.94
69324;DHT22;56470;47.350;8.718;2022-08-11T13:42:57;28.11;37.93
69324;DHT22;56470;47.350;8.718;2022-08-11T13:45:24;28.22;37.43
69324;DHT22;56470;47.350;8.718;2022-08-11T13:47:57;28.22;37.34
69324;DHT22;56470;47.350;8.718;2022-08-11T13:50:24;28.29;37.09
69324;DHT22;56470;47.350;8.718;2022-08-11T13:53:09;27.85;37.59
69324;DHT22;56470;47.350;8.718;2022-08-11T13:55:38;28.00;37.59
69324;DHT22;56470;47.350;8.718;2022-08-11T13:58:04;27.98;37.73
69324;DHT22;56470;47.350;8.718;2022-08-11T14:00:29;28.02;38.46
69324;DHT22;56470;47.350;8.718;2022-08-11T14:02:56;27.84;38.75
69324;DHT22;56470;47.350;8.718;2022-08-11T14:05:26;27.78;38.34
69324;DHT22;56470;47.350;8.718;2022-08-11T14:07:59;27.87;38.20
69324;DHT22;56470;47.350;8.718;2022-08-11T14:10:27;27.51;38.43
69324;DHT22;56470;47.350;8.718;2022-08-11T14:12:59;27.78;38.18
69324;DHT22;56470;47.350;8.718;2022-08-11T14:15:45;27.97;37.89
69324;DHT22;56470;47.350;8.718;2022-08-11T14:18:21;28.15;38.00
69324;DHT22;56470;47.350;8.718;2022-08-11T14:20:54;28.31;38.23
69324;DHT22;56470;47.350;8.718;2022-08-11T14:23:40;28.21;38.33
69324;DHT22;56470;47.350;8.718;2022-08-11T14:26:08;28.35;38.48
69324;DHT22;56470;47.350;8.718;2022-08-11T14:29:00;28.19;38.17
69324;DHT22;56470;47.350;8.718;2022-08-11T14:31:29;28.09;38.76
69324;DHT22;56470;47.350;8.718;2022-08-11T14:34:00;28.16;38.29
69324;DHT22;56470;47.350;8.718;2022-08-11T14:36:29;28.22;38.13
69324;DHT22;56470;47.350;8.718;2022-08-11T14:38:55;28.15;37.87
69324;DHT22;56470;47.350;8.718;2022-08-11T14:41:22;27.90;37.93
69324;DHT22;56470;47.350;8.718;2022-08-11T14:44:08;28.05;37.89
69324;DHT22;56470;47.350;8.718;2022-08-11T14:46:52;28.13;37.30
69324;DHT22;56470;47.350;8.718;2022-08-11T14:49:33;28.23;37.10
69324;DHT22;56470;47.350;8.718;2022-08-11T14:52:00;28.15;38.51
69324;DHT22;56470;47.350;8.718;2022-08-11T14:54:28;28.04;38.54
69324;DHT22;56470;47.350;8.718;2022-08-11T14:57:13;27.97;37.72
69324;DHT22;56470;47.350;8.718;2022-08-11T14:59:38;27.94;37.61
69324;DHT22;56470;47.350;8.718;2022-08-11T15:02:04;27.90;37.73
69324;DHT22;56470;47.350;8.718;2022-08-11T15:04:50;27.91;38.64
69324;DHT22;56470;47.350;8.718;2022-08-11T15:07:16;27.81;38.40
69324;DHT22;56470;47.350;8.718;2022-08-11T15:33:27;27.74;37.52
69324;DHT22;56470;47.350;8.718;2022-08-11T15:36:13;27.59;37.64
69324;DHT22;56470;47.350;8.718;2022-08-11T15:39:07;27.64;37.48
69324;DHT22;56470;47.350;8.718;2022-08-11T15:41:44;27.71;38.33
69324;DHT22;56470;47.350;8.718;2022-08-11T15:44:32;27.80;38.22
69324;DHT22;56470;47.350;8.718;2022-08-11T15:47:22;27.78;38.15
69324;DHT22;56470;47.350;8.718;2022-08-11T15:49:52;27.77;38.53
69324;DHT22;56470;47.350;8.718;2022-08-11T15:52:21;27.90;38.90
69324;DHT22;56470;47.350;8.718;2022-08-11T15:54:48;27.83;38.56
69324;DHT22;56470;47.350;8.718;2022-08-11T15:57:16;27.68;37.89
69324;DHT22;56470;47.350;8.718;2022-08-11T16:00:05;27.54;38.33
69324;DHT22;56470;47.350;8.718;2022-08-11T16:02:51;27.54;39.62
69324;DHT22;56470;47.350;8.718;2022-08-11T16:05:20;27.53;39.91
69324;DHT22;56470;47.350;8.718;2022-08-11T16:07:46;27.54;40.18
69324;DHT22;56470;47.350;8.718;2022-08-11T16:10:15;27.50;39.88
69324;DHT22;56470;47.350;8.718;2022-08-11T16:13:05;27.56;39.69
69324;DHT22;56470;47.350;8.718;2022-08-11T16:15:33;27.53;39.04
69324;DHT22;56470;47.350;8.718;2022-08-11T16:18:19;27.47;39.06
69324;DHT22;56470;47.350;8.718;2022-08-11T16:20:45;27.49;39.10
69324;DHT22;56470;47.350;8.718;2022-08-11T16:23:13;27.49;39.81
69324;DHT22;56470;47.350;8.718;2022-08-11T16:25:40;27.43;39.46
69324;DHT22;56470;47.350;8.718;2022-08-11T16:28:07;27.29;40.23
69324;DHT22;56470;47.350;8.718;2022-08-11T16:30:36;27.42;40.27
69324;DHT22;56470;47.350;8.718;2022-08-11T16:33:03;27.25;40.34
69324;DHT22;56470;47.350;8.718;2022-08-11T16:35:33;27.33;40.43
69324;DHT22;56470;47.350;8.718;2022-08-11T16:38:19;27.18;40.47
69324;DHT22;56470;47.350;8.718;2022-08-11T16:41:05;27.22;40.26
69324;DHT22;56470;47.350;8.718;2022-08-11T16:43:37;27.18;39.70
69324;DHT22;56470;47.350;8.718;2022-08-11T16:46:23;27.18;40.17
69324;DHT22;56470;47.350;8.718;2022-08-11T16:49:19;27.18;40.17
69324;DHT22;56470;47.350;8.718;2022-08-11T16:51:45;27.18;39.79
69324;DHT22;56470;47.350;8.718;2022-08-11T16:54:11;27.08;40.18
69324;DHT22;56470;47.350;8.718;2022-08-11T16:56:42;27.06;40.22
69324;DHT22;56470;47.350;8.718;2022-08-11T16:59:16;27.09;40.41
69324;DHT22;56470;47.350;8.718;2022-08-11T17:01:46;27.09;40.26
69324;DHT22;56470;47.350;8.718;2022-08-11T17:04:36;27.04;40.47
69324;DHT22;56470;47.350;8.718;2022-08-11T17:07:23;27.01;40.51
69324;DHT22;56470;47.350;8.718;2022-08-11T17:10:16;26.95;40.18
69324;DHT22;56470;47.350;8.718;2022-08-11T17:13:01;26.91;40.45
69324;DHT22;56470;47.350;8.718;2022-08-11T17:15:36;26.90;40.58
69324;DHT22;56470;47.350;8.718;2022-08-11T17:18:22;26.84;40.62
69324;DHT22;56470;47.350;8.718;2022-08-11T17:21:04;26.78;40.89
69324;DHT22;56470;47.350;8.718;2022-08-11T17:23:31;26.83;40.90
69324;DHT22;56470;47.350;8.718;2022-08-11T17:26:38;26.73;40.81
69324;DHT22;56470;47.350;8.718;2022-08-11T17:29:32;26.67;40.80
69324;DHT22;56470;47.350;8.718;2022-08-11T17:32:00;26.67;40.58
69324;DHT22;56470;47.350;8.718;2022-08-11T17:34:45;26.61;40.39
69324;DHT22;56470;47.350;8.718;2022-08-11T17:37:31;26.61;40.82
69324;DHT22;56470;47.350;8.718;2022-08-11T17:40:00;26.60;40.57
69324;DHT22;56470;47.350;8.718;2022-08-11T17:42:28;26.57;40.57
69324;DHT22;56470;47.350;8.718;2022-08-11T17:45:15;26.56;40.98
69324;DHT22;56470;47.350;8.718;2022-08-11T17:48:00;26.60;41.09
69324;DHT22;56470;47.350;8.718;2022-08-11T17:50:46;26.52;41.74
69324;DHT22;56470;47.350;8.718;2022-08-11T17:53:13;26.44;42.00
69324;DHT22;56470;47.350;8.718;2022-08-11T17:55:58;26.39;42.32
69324;DHT22;56470;47.350;8.718;2022-08-11T17:58:44;26.31;42.62
69324;DHT22;56470;47.350;8.718;2022-08-11T18:01:30;26.25;42.68
69324;DHT22;56470;47.350;8.718;2022-08-11T18:04:00;26.21;42.81
69324;DHT22;56470;47.350;8.718;2022-08-11T18:06:27;26.11;43.04
69324;DHT22;56470;47.350;8.718;2022-08-11T18:08:55;26.04;42.95
69324;DHT22;56470;47.350;8.718;2022-08-11T18:11:40;25.99;43.22
69324;DHT22;56470;47.350;8.718;2022-08-11T18:14:26;25.94;43.46
69324;DHT22;56470;47.350;8.718;2022-08-11T18:17:10;25.85;43.62
69324;DHT22;56470;47.350;8.718;2022-08-11T18:19:54;25.73;43.92
69324;DHT22;56470;47.350;8.718;2022-08-11T18:22:41;25.77;47.38
69324;DHT22;56470;47.350;8.718;2022-08-11T18:25:38;25.78;47.09
69324;DHT22;56470;47.350;8.718;2022-08-11T18:28:26;25.75;46.04
69324;DHT22;56470;47.350;8.718;2022-08-11T18:31:14;25.74;45.53
69324;DHT22;56470;47.350;8.718;2022-08-11T18:34:03;25.66;45.33
69324;DHT22;56470;47.350;8.718;2022-08-11T18:37:02;25.61;44.70
69324;DHT22;56470;47.350;8.718;2022-08-11T18:39:51;25.57;45.41
69324;DHT22;56470;47.350;8.718;2022-08-11T18:42:37;25.54;45.14
69324;DHT22;56470;47.350;8.718;2022-08-11T18:45:23;25.51;45.08
69324;DHT22;56470;47.350;8.718;2022-08-11T18:48:11;25.40;44.96
69324;DHT22;56470;47.350;8.718;2022-08-11T18:50:59;25.29;45.28
69324;DHT22;56470;47.350;8.718;2022-08-11T18:53:52;25.20;45.52
69324;DHT22;56470;47.350;8.718;2022-08-11T18:56:38;25.14;45.72
69324;DHT22;56470;47.350;8.718;2022-08-11T18:59:24;25.05;45.99
69324;DHT22;56470;47.350;8.718;2022-08-11T19:02:11;24.98;46.01
69324;DHT22;56470;47.350;8.718;2022-08-11T19:04:57;24.88;46.37
69324;DHT22;56470;47.350;8.718;2022-08-11T19:07:44;24.82;46.56
69324;DHT22;56470;47.350;8.718;2022-08-11T19:10:29;24.75;46.98
69324;DHT22;56470;47.350;8.718;2022-08-11T19:13:14;24.75;46.98
69324;DHT22;56470;47.350;8.718;2022-08-11T19:15:59;24.67;47.01
69324;DHT22;56470;47.350;8.718;2022-08-11T19:18:46;24.61;47.17
69324;DHT22;56470;47.350;8.718;2022-08-11T19:21:31;24.53;47.90
69324;DHT22;56470;47.350;8.718;2022-08-11T19:24:17;24.37;47.84
69324;DHT22;56470;47.350;8.718;2022-08-11T19:27:02;24.33;48.29
69324;DHT22;56470;47.350;8.718;2022-08-11T19:29:46;24.20;48.53
69324;DHT22;56470;47.350;8.718;2022-08-11T19:32:31;24.08;48.94
69324;DHT22;56470;47.350;8.718;2022-08-11T19:35:16;23.92;49.40
69324;DHT22;56470;47.350;8.718;2022-08-11T19:38:01;23.84;49.72
69324;DHT22;56470;47.350;8.718;2022-08-11T19:40:46;23.75;50.05
69324;DHT22;56470;47.350;8.718;2022-08-11T19:43:31;23.71;50.17
69324;DHT22;56470;47.350;8.718;2022-08-11T19:46:19;23.67;50.41
69324;DHT22;56470;47.350;8.718;2022-08-11T19:49:03;23.64;50.41
69324;DHT22;56470;47.350;8.718;2022-08-11T19:51:48;23.64;50.45
69324;DHT22;56470;47.350;8.718;2022-08-11T19:54:34;23.67;50.31
69324;DHT22;56470;47.350;8.718;2022-08-11T19:57:19;23.63;50.51